createdAt,value
2023-05-05T00:01:35.599Z,72.73
2023-05-05T00:04:02.624Z,72.40
2023-05-05T00:06:29.708Z,72.75
2023-05-05T00:08:57.021Z,73.32
2023-05-05T00:11:24.075Z,73.15
2023-05-05T00:13:51.635Z,73.36
2023-05-05T00:16:18.826Z,73.84
2023-05-05T00:18:45.894Z,74.26
2023-05-05T00:21:13.137Z,74.67
2023-05-05T00:23:40.219Z,75.10
2023-05-05T00:26:07.187Z,75.77
2023-05-05T00:28:34.239Z,76.76
2023-05-05T00:31:01.875Z,76.93
2023-05-05T00:33:28.991Z,77.35
2023-05-05T00:35:55.905Z,77.09
2023-05-05T00:38:23.490Z,77.93
2023-05-05T00:40:50.475Z,77.29
2023-05-05T00:43:17.396Z,77.41
2023-05-05T00:45:47.881Z,78.42
2023-05-05T00:48:17.218Z,78.17
2023-05-05T00:50:45.240Z,77.26
2023-05-05T00:53:12.500Z,76.75
2023-05-05T00:55:39.629Z,76.69
2023-05-05T00:58:06.725Z,77.59
2023-05-05T01:00:34.684Z,78.28
2023-05-05T01:03:04.709Z,77.94
2023-05-05T01:05:51.664Z,77.29
2023-05-05T01:08:27.536Z,77.64
2023-05-05T01:11:12.413Z,77.15
2023-05-05T01:13:48.563Z,76.70
2023-05-05T01:16:24.097Z,77.69
2023-05-05T01:19:29.948Z,77.36
2023-05-05T01:22:01.650Z,76.38
2023-05-05T01:25:14.408Z,77.02
2023-05-05T01:27:56.152Z,77.63
2023-05-05T01:30:50.027Z,76.14
2023-05-05T01:33:23.440Z,76.79
2023-05-05T01:36:03.366Z,77.63
2023-05-05T01:38:43.106Z,77.41
2023-05-05T01:41:25.582Z,75.68
2023-05-05T01:43:56.416Z,75.27
2023-05-05T01:46:25.065Z,75.40
2023-05-05T01:48:54.259Z,74.70
2023-05-05T01:51:24.284Z,75.62
2023-05-05T01:53:59.423Z,76.23
2023-05-05T01:56:27.696Z,77.04
2023-05-05T01:58:56.025Z,77.47
2023-05-05T02:01:26.056Z,77.80
2023-05-05T02:03:57.017Z,78.18
2023-05-05T02:06:27.070Z,78.43
2023-05-05T02:08:55.261Z,78.44
2023-05-05T02:11:22.498Z,78.78
2023-05-05T02:13:51.271Z,79.09
2023-05-05T02:16:20.282Z,79.51
2023-05-05T02:18:48.267Z,79.11
2023-05-05T02:21:18.154Z,78.51
2023-05-05T02:23:48.269Z,79.46
2023-05-05T02:26:16.940Z,79.39
2023-05-05T02:28:49.960Z,78.99
2023-05-05T02:31:19.693Z,79.38
2023-05-05T02:33:47.783Z,78.02
2023-05-05T02:36:20.568Z,78.15
2023-05-05T02:39:01.334Z,78.74
2023-05-05T02:41:36.564Z,79.50
2023-05-05T02:44:11.494Z,79.98
2023-05-05T02:46:39.617Z,80.09
2023-05-05T02:49:06.700Z,79.14
2023-05-05T02:51:34.194Z,78.69
2023-05-05T02:54:06.568Z,79.07
2023-05-05T02:56:54.017Z,79.06
2023-05-05T02:59:27.292Z,79.32
2023-05-05T03:02:06.404Z,79.26
2023-05-05T03:04:49.419Z,79.49
2023-05-05T03:07:42.782Z,78.90
2023-05-05T03:10:14.148Z,79.46
2023-05-05T03:12:47.039Z,79.12
2023-05-05T03:15:25.953Z,79.38
2023-05-05T03:17:54.349Z,79.03
2023-05-05T03:20:22.830Z,77.15
2023-05-05T03:22:51.496Z,76.91
2023-05-05T03:25:18.757Z,76.98
2023-05-05T03:27:46.209Z,78.28
2023-05-05T03:30:16.256Z,79.50
2023-05-05T03:32:51.156Z,79.62
2023-05-05T03:35:18.350Z,79.48
2023-05-05T03:37:45.411Z,78.97
2023-05-05T03:40:15.197Z,80.28
2023-05-05T03:42:42.345Z,80.20
2023-05-05T03:45:09.908Z,79.77
2023-05-05T03:47:37.574Z,80.03
2023-05-05T03:50:05.994Z,78.46
2023-05-05T03:52:33.707Z,78.25
2023-05-05T03:55:01.405Z,77.29
2023-05-05T03:57:28.691Z,77.64
2023-05-05T03:59:55.902Z,77.62
2023-05-05T04:02:22.948Z,79.63
2023-05-05T04:04:50.022Z,79.87
2023-05-05T04:07:17.085Z,80.00
2023-05-05T04:09:46.994Z,80.29
2023-05-05T04:12:14.371Z,80.14
2023-05-05T04:14:41.434Z,80.50
2023-05-05T04:17:09.329Z,80.54
2023-05-05T04:19:36.457Z,81.03
2023-05-05T04:22:04.085Z,80.62
2023-05-05T04:24:31.535Z,81.36
2023-05-05T04:26:59.130Z,82.10
2023-05-05T04:29:27.205Z,82.16
2023-05-05T04:31:54.692Z,83.11
2023-05-05T04:34:22.517Z,83.75
2023-05-05T04:36:51.021Z,84.08
2023-05-05T04:39:19.220Z,82.53
2023-05-05T04:41:46.447Z,82.59
2023-05-05T04:44:14.342Z,80.06
2023-05-05T04:46:42.111Z,80.34
2023-05-05T04:49:09.589Z,80.79
2023-05-05T04:51:36.633Z,80.29
2023-05-05T04:54:04.268Z,80.22
2023-05-05T04:56:32.224Z,79.32
2023-05-05T04:58:59.273Z,79.02
2023-05-05T05:01:26.302Z,78.55
2023-05-05T05:03:54.976Z,77.92
2023-05-05T05:06:22.127Z,77.22
2023-05-05T05:08:49.112Z,77.72
2023-05-05T05:11:16.132Z,77.76
2023-05-05T05:13:43.122Z,78.90
2023-05-05T05:16:10.192Z,77.00
2023-05-05T05:18:37.441Z,76.57
2023-05-05T05:21:04.429Z,77.95
2023-05-05T05:23:31.624Z,78.46
2023-05-05T05:25:58.751Z,77.14
2023-05-05T05:28:26.177Z,77.18
2023-05-05T05:30:57.942Z,77.32
2023-05-05T05:33:25.221Z,76.49
2023-05-05T05:35:54.497Z,76.69
2023-05-05T05:38:22.269Z,76.82
2023-05-05T05:40:52.629Z,77.02
2023-05-05T05:43:19.739Z,76.97
2023-05-05T05:45:47.054Z,76.56
2023-05-05T05:48:15.102Z,76.61
2023-05-05T05:50:42.542Z,75.73
2023-05-05T05:53:09.689Z,77.13
2023-05-05T05:55:41.225Z,77.33
2023-05-05T05:58:08.608Z,76.56
2023-05-05T06:00:35.700Z,75.09
2023-05-05T06:03:07.635Z,76.76
2023-05-05T06:05:37.350Z,77.70
2023-05-05T06:08:04.506Z,78.86
2023-05-05T06:10:34.711Z,79.10
2023-05-05T06:13:06.695Z,77.16
2023-05-05T06:15:36.000Z,77.02
2023-05-05T06:18:04.802Z,78.04
2023-05-05T06:20:32.124Z,79.18
2023-05-05T06:22:59.330Z,79.97
2023-05-05T06:25:28.420Z,80.67
2023-05-05T06:27:55.473Z,78.36
2023-05-05T06:30:22.548Z,74.68
2023-05-05T06:32:49.696Z,74.31
2023-05-05T06:35:16.617Z,73.99
2023-05-05T06:37:44.490Z,75.08
2023-05-05T06:40:12.048Z,75.94
2023-05-05T06:42:39.136Z,75.73
2023-05-05T06:45:09.809Z,76.14
2023-05-05T06:47:36.991Z,76.52
2023-05-05T06:50:04.346Z,77.22
2023-05-05T06:52:31.451Z,76.43
2023-05-05T06:54:58.522Z,77.13
2023-05-05T06:57:25.991Z,77.58
2023-05-05T06:59:54.154Z,78.13
2023-05-05T07:02:21.107Z,78.34
2023-05-05T07:04:48.281Z,78.90
2023-05-05T07:07:15.297Z,76.92
2023-05-05T07:09:42.323Z,77.01
2023-05-05T07:12:09.315Z,77.12
2023-05-05T07:14:36.382Z,77.72
2023-05-05T07:17:03.439Z,78.34
2023-05-05T07:19:30.377Z,78.61
2023-05-05T07:21:57.325Z,78.48
2023-05-05T07:24:24.626Z,77.21
2023-05-05T07:26:51.706Z,78.95
2023-05-05T07:29:18.826Z,77.13
2023-05-05T07:31:46.049Z,77.25
2023-05-05T07:34:13.062Z,78.24
2023-05-05T07:36:40.245Z,78.15
2023-05-05T07:41:48.431Z,76.57
2023-05-05T07:44:15.530Z,75.61
2023-05-05T07:46:42.498Z,77.46
2023-05-05T07:49:09.404Z,75.74
2023-05-05T07:51:36.579Z,80.30
2023-05-05T07:54:03.677Z,77.88
2023-05-05T07:56:30.792Z,77.18
2023-05-05T07:58:57.886Z,79.61
2023-05-05T08:01:24.832Z,81.16
2023-05-05T08:03:51.899Z,81.72
2023-05-05T08:06:22.478Z,80.67
2023-05-05T08:08:49.982Z,80.80
2023-05-05T08:11:17.497Z,79.91
2023-05-05T08:13:44.499Z,79.67
2023-05-05T08:16:12.404Z,79.32
2023-05-05T08:18:39.626Z,77.48
2023-05-05T08:21:08.099Z,78.29
2023-05-05T08:23:35.946Z,79.17
2023-05-05T08:26:04.673Z,78.76
2023-05-05T08:28:31.691Z,78.51
2023-05-05T08:30:59.472Z,77.54
2023-05-05T08:33:26.602Z,77.78
2023-05-05T08:35:53.591Z,77.80
2023-05-05T08:38:20.728Z,78.64
2023-05-05T08:40:48.039Z,80.65
2023-05-05T08:43:16.023Z,79.57
2023-05-05T08:45:43.496Z,80.52
2023-05-05T08:48:12.586Z,79.79
2023-05-05T08:50:40.405Z,80.19
2023-05-05T08:53:11.062Z,79.46
2023-05-05T08:55:56.250Z,80.33
2023-05-05T08:58:28.808Z,80.18
2023-05-05T09:00:57.037Z,79.14
2023-05-05T09:03:25.216Z,80.11
2023-05-05T09:05:52.381Z,80.23
2023-05-05T09:08:20.263Z,80.06
2023-05-05T09:10:49.202Z,79.29
2023-05-05T09:13:16.968Z,80.04
2023-05-05T09:15:43.977Z,79.33
2023-05-05T09:18:12.775Z,79.36
2023-05-05T09:20:41.108Z,78.63
2023-05-05T09:23:13.592Z,78.66
2023-05-05T09:25:41.593Z,77.43
2023-05-05T09:28:16.576Z,76.99
2023-05-05T09:30:46.611Z,77.54
2023-05-05T09:33:14.143Z,76.04
2023-05-05T09:35:55.907Z,77.19
2023-05-05T09:38:24.567Z,77.30
2023-05-05T09:40:53.327Z,76.02
2023-05-05T09:43:22.507Z,76.98
2023-05-05T09:45:50.911Z,76.09
2023-05-05T09:48:29.074Z,77.08
2023-05-05T09:50:57.294Z,75.72
2023-05-05T09:53:25.904Z,75.47
2023-05-05T09:56:01.964Z,76.09
2023-05-05T09:58:30.424Z,76.20
2023-05-05T10:00:59.116Z,76.24
2023-05-05T10:03:26.457Z,77.01
2023-05-05T10:05:59.779Z,76.20
2023-05-05T10:08:29.123Z,76.45
2023-05-05T10:11:00.830Z,76.51
2023-05-05T10:13:29.136Z,76.07
2023-05-05T10:15:58.060Z,76.39
2023-05-05T10:18:27.597Z,76.26
2023-05-05T10:20:58.852Z,76.22
2023-05-05T10:23:36.256Z,75.26
2023-05-05T10:26:08.194Z,75.16
2023-05-05T10:28:44.067Z,75.34
2023-05-05T10:31:25.709Z,75.33
2023-05-05T10:34:36.755Z,75.77
2023-05-05T10:37:04.872Z,76.03
2023-05-05T10:39:32.896Z,76.44
2023-05-05T10:42:04.759Z,76.91
2023-05-05T10:44:33.318Z,75.82
2023-05-05T10:47:02.116Z,76.91
2023-05-05T10:49:38.112Z,77.39
2023-05-05T10:52:28.606Z,75.56
2023-05-05T10:55:09.626Z,76.50
2023-05-05T10:57:40.697Z,77.20
2023-05-05T11:00:09.548Z,77.15
2023-05-05T11:02:37.368Z,76.83
2023-05-05T11:05:26.283Z,76.81
2023-05-05T11:07:53.319Z,75.43
2023-05-05T11:10:21.290Z,75.26
2023-05-05T11:12:54.869Z,75.42
2023-05-05T11:15:27.680Z,75.47
2023-05-05T11:17:58.250Z,75.99
2023-05-05T11:20:39.778Z,75.46
2023-05-05T11:23:07.074Z,75.03
2023-05-05T11:25:37.559Z,73.73
2023-05-05T11:28:08.847Z,73.92
2023-05-05T11:30:59.364Z,72.36
2023-05-05T11:33:38.526Z,74.11
2023-05-05T11:36:09.668Z,74.24
2023-05-05T11:38:36.511Z,70.66
2023-05-05T11:41:32.755Z,71.55
2023-05-05T11:44:20.091Z,74.64
2023-05-05T11:46:52.736Z,74.19
2023-05-05T11:49:31.398Z,73.57
2023-05-05T11:51:59.908Z,73.88
2023-05-05T11:54:27.414Z,73.16
2023-05-05T11:56:59.211Z,73.31
2023-05-05T11:59:26.666Z,73.29
2023-05-05T12:01:53.920Z,73.45
2023-05-05T12:04:21.125Z,72.56
2023-05-05T12:06:49.236Z,73.12
2023-05-05T12:09:24.195Z,73.40
2023-05-05T12:11:53.941Z,72.82
2023-05-05T12:14:21.812Z,71.46
2023-05-05T12:17:01.502Z,71.03
2023-05-05T12:19:33.153Z,72.22
2023-05-05T12:22:02.062Z,72.96
2023-05-05T12:24:31.715Z,71.59
2023-05-05T12:27:10.881Z,71.24
2023-05-05T12:29:38.206Z,70.92
2023-05-05T12:32:05.817Z,71.28
2023-05-05T12:34:33.390Z,71.35
2023-05-05T12:37:01.674Z,70.51
2023-05-05T12:39:36.742Z,66.79
2023-05-05T12:42:04.902Z,66.58
2023-05-05T12:44:36.450Z,67.47
2023-05-05T12:47:04.512Z,68.74
2023-05-05T12:49:34.358Z,67.51
2023-05-05T12:52:01.751Z,68.76
2023-05-05T12:54:31.406Z,70.46
2023-05-05T12:56:58.822Z,71.47
2023-05-05T12:59:25.759Z,71.17
2023-05-05T13:01:54.709Z,71.49
2023-05-05T13:04:25.947Z,71.75
2023-05-05T13:07:16.234Z,71.65
2023-05-05T13:09:43.435Z,68.57
2023-05-05T13:12:13.206Z,71.56
2023-05-05T13:14:41.303Z,72.03
2023-05-05T13:17:08.960Z,72.03
2023-05-05T13:19:41.997Z,72.20
2023-05-05T13:22:13.093Z,71.54
2023-05-05T13:24:50.668Z,71.38
2023-05-05T13:27:19.576Z,71.58
2023-05-05T13:29:46.829Z,71.19
2023-05-05T13:32:14.007Z,71.71
2023-05-05T13:34:41.607Z,71.59
2023-05-05T13:37:08.908Z,70.88
2023-05-05T13:39:37.128Z,71.48
2023-05-05T13:42:04.264Z,72.66
2023-05-05T13:44:33.692Z,73.23
2023-05-05T13:47:00.676Z,73.44
2023-05-05T13:49:28.017Z,72.67
2023-05-05T13:51:56.515Z,72.52
2023-05-05T13:54:23.419Z,73.15
2023-05-05T13:56:50.872Z,73.13
2023-05-05T13:59:18.344Z,72.95
2023-05-05T14:01:45.533Z,72.64
2023-05-05T14:04:12.778Z,71.58
2023-05-05T14:06:39.811Z,70.77
2023-05-05T14:09:08.130Z,69.97
2023-05-05T14:11:35.245Z,70.85
2023-05-05T14:14:02.901Z,71.14
2023-05-05T14:16:30.069Z,70.98
2023-05-05T14:18:57.151Z,69.95
2023-05-05T14:21:24.204Z,70.87
2023-05-05T14:23:51.254Z,70.35
2023-05-05T14:26:18.278Z,70.78
2023-05-05T14:28:49.514Z,71.54
2023-05-05T14:31:17.948Z,72.13
2023-05-05T14:33:45.177Z,72.11
2023-05-05T14:36:12.326Z,71.60
2023-05-05T14:38:39.396Z,71.23
2023-05-05T14:41:06.446Z,70.96
2023-05-05T14:43:33.504Z,71.03
2023-05-05T14:46:02.538Z,71.01
2023-05-05T14:48:30.246Z,70.98
2023-05-05T14:51:00.410Z,71.40
2023-05-05T14:53:27.358Z,71.26
2023-05-05T14:55:54.912Z,71.33
2023-05-05T14:58:24.630Z,69.62
2023-05-05T15:00:58.023Z,70.17
2023-05-05T15:03:25.393Z,70.89
2023-05-05T15:05:52.639Z,71.16
2023-05-05T15:08:19.833Z,70.86
2023-05-05T15:10:47.208Z,71.07
2023-05-05T15:13:14.284Z,66.97
2023-05-05T15:15:41.616Z,67.91
2023-05-05T15:18:08.738Z,68.84
2023-05-05T15:20:35.782Z,68.93
2023-05-05T15:23:03.504Z,70.05
2023-05-05T15:25:30.675Z,70.27
2023-05-05T15:27:59.015Z,71.02
2023-05-05T15:30:27.028Z,72.25
2023-05-05T15:32:54.722Z,72.24
2023-05-05T15:35:21.830Z,72.39
2023-05-05T15:37:48.825Z,72.58
2023-05-05T15:40:16.031Z,71.51
2023-05-05T15:42:43.000Z,70.85
2023-05-05T15:45:12.500Z,69.10
2023-05-05T15:47:39.563Z,69.52
2023-05-05T15:50:07.786Z,70.60
2023-05-05T15:52:34.924Z,71.06
2023-05-05T15:55:02.195Z,71.83
2023-05-05T15:57:29.618Z,71.91
2023-05-05T15:59:56.484Z,72.67
2023-05-05T16:02:23.825Z,74.10
2023-05-05T16:04:51.009Z,72.10
2023-05-05T16:07:20.890Z,71.71
2023-05-05T16:09:47.813Z,71.99
2023-05-05T16:12:14.944Z,72.88
2023-05-05T16:14:41.980Z,72.82
2023-05-05T16:17:09.245Z,72.80
2023-05-05T16:19:36.285Z,72.60
2023-05-05T16:22:03.282Z,72.78
2023-05-05T16:24:30.395Z,72.83
2023-05-05T16:26:57.454Z,73.03
2023-05-05T16:29:24.687Z,72.46
2023-05-05T16:31:51.926Z,72.62
2023-05-05T16:34:19.113Z,72.46
2023-05-05T16:36:46.545Z,72.14
2023-05-05T16:39:13.857Z,71.50
2023-05-05T16:41:41.400Z,71.57
2023-05-05T16:44:08.485Z,72.06
2023-05-05T16:46:37.440Z,72.16
2023-05-05T16:49:04.701Z,72.00
2023-05-05T16:51:31.810Z,72.17
2023-05-05T16:53:58.752Z,71.43
2023-05-05T16:56:25.892Z,71.22
2023-05-05T16:58:52.923Z,71.27
2023-05-05T17:01:20.012Z,71.52
2023-05-05T17:03:47.001Z,71.51
2023-05-05T17:06:13.988Z,71.71
2023-05-05T17:08:42.395Z,71.82
2023-05-05T17:11:11.671Z,71.66
2023-05-05T17:13:38.929Z,71.86
2023-05-05T17:16:06.690Z,71.53
2023-05-05T17:18:33.757Z,70.79
2023-05-05T17:21:00.824Z,70.45
2023-05-05T17:23:27.904Z,70.56
2023-05-05T17:25:54.998Z,71.06
2023-05-05T17:28:22.516Z,71.13
2023-05-05T17:30:49.715Z,68.57
2023-05-05T17:33:22.148Z,70.24
2023-05-05T17:35:49.199Z,70.71
2023-05-05T17:38:16.258Z,71.20
2023-05-05T17:40:43.497Z,71.10
2023-05-05T17:43:10.516Z,71.14
2023-05-05T17:45:37.702Z,70.44
2023-05-05T17:48:05.155Z,69.73
2023-05-05T17:50:32.065Z,69.45
2023-05-05T17:52:59.070Z,69.39
2023-05-05T17:55:26.433Z,69.37
2023-05-05T17:57:53.468Z,70.17
2023-05-05T18:00:21.014Z,70.48
2023-05-05T18:02:48.056Z,70.52
2023-05-05T18:05:15.151Z,70.51
2023-05-05T18:07:42.160Z,70.73
2023-05-05T18:10:10.930Z,68.50
2023-05-05T18:12:38.015Z,68.88
2023-05-05T18:15:05.928Z,69.03
2023-05-05T18:17:33.009Z,69.38
2023-05-05T18:20:00.187Z,70.20
2023-05-05T18:22:27.308Z,70.62
2023-05-05T18:24:59.108Z,71.04
2023-05-05T18:27:27.146Z,71.44
2023-05-05T18:29:54.723Z,71.15
2023-05-05T18:32:22.257Z,70.01
2023-05-05T18:34:49.479Z,70.78
2023-05-05T18:37:16.437Z,70.89
2023-05-05T18:39:44.097Z,71.17
2023-05-05T18:42:13.058Z,71.41
2023-05-05T18:44:40.222Z,71.44
2023-05-05T18:47:07.960Z,71.80
2023-05-05T18:49:35.105Z,71.48
2023-05-05T18:52:02.199Z,72.32
2023-05-05T18:54:29.141Z,72.64
2023-05-05T18:56:56.236Z,72.19
2023-05-05T18:59:23.215Z,71.64
2023-05-05T19:01:50.219Z,71.96
2023-05-05T19:07:04.639Z,72.34
2023-05-05T19:09:31.773Z,72.27
2023-05-05T19:11:59.081Z,72.49
2023-05-05T19:14:26.100Z,71.93
2023-05-05T19:16:53.209Z,71.81
2023-05-05T19:19:20.382Z,72.06
2023-05-05T19:21:47.370Z,72.67
2023-05-05T19:24:14.382Z,72.86
2023-05-05T19:26:41.535Z,72.36
2023-05-05T19:29:08.596Z,72.05
2023-05-05T19:31:35.803Z,71.78
2023-05-05T19:34:04.465Z,71.04
2023-05-05T19:36:32.250Z,72.06
2023-05-05T19:39:04.184Z,71.24
2023-05-05T19:41:31.833Z,72.21
2023-05-05T19:43:59.039Z,72.93
2023-05-05T19:46:26.884Z,73.49
2023-05-05T19:48:54.064Z,74.09
2023-05-05T19:51:21.295Z,73.77
2023-05-05T19:53:48.284Z,73.89
2023-05-05T19:56:15.506Z,73.75
2023-05-05T19:58:56.688Z,74.29
2023-05-05T20:01:24.103Z,74.07
2023-05-05T20:03:54.396Z,73.25
2023-05-05T20:06:22.447Z,71.56
2023-05-05T20:08:49.473Z,72.80
2023-05-05T20:11:17.189Z,74.07
2023-05-05T20:13:44.425Z,73.80
2023-05-05T20:16:12.080Z,73.58
2023-05-05T20:18:39.844Z,73.60
2023-05-05T20:21:07.116Z,74.08
2023-05-05T20:23:34.275Z,74.40
2023-05-05T20:26:01.874Z,74.08
2023-05-05T20:28:28.928Z,73.89
2023-05-05T20:30:56.248Z,74.03
2023-05-05T20:33:23.316Z,70.56
2023-05-05T20:35:50.353Z,74.23
2023-05-05T20:38:17.718Z,73.51
2023-05-05T20:40:44.695Z,73.40
2023-05-05T20:43:12.109Z,73.32
2023-05-05T20:45:39.217Z,73.36
2023-05-05T20:48:09.942Z,72.82
2023-05-05T20:50:41.622Z,73.40
2023-05-05T20:53:09.765Z,72.02
2023-05-05T20:55:39.821Z,71.09
2023-05-05T20:58:09.638Z,72.37
2023-05-05T21:00:36.789Z,71.31
2023-05-05T21:03:05.139Z,75.37
2023-05-05T21:05:32.378Z,74.81
2023-05-05T21:08:00.835Z,74.95
2023-05-05T21:10:29.160Z,75.46
2023-05-05T21:12:56.279Z,74.02
2023-05-05T21:15:23.427Z,75.02
2023-05-05T21:17:50.642Z,75.07
2023-05-05T21:20:18.895Z,75.18
2023-05-05T21:22:46.372Z,75.02
2023-05-05T21:25:19.283Z,75.03
2023-05-05T21:27:48.243Z,74.65
2023-05-05T21:30:16.355Z,74.90
2023-05-05T21:32:43.966Z,73.47
2023-05-05T21:35:11.459Z,73.54
2023-05-05T21:37:41.703Z,73.87
2023-05-05T21:40:13.621Z,73.71
2023-05-05T21:42:42.166Z,73.63
2023-05-05T21:45:11.338Z,72.42
2023-05-05T21:47:38.396Z,71.60
2023-05-05T21:50:06.048Z,72.48
2023-05-05T21:52:33.202Z,72.59
2023-05-05T21:55:00.185Z,72.39
2023-05-05T21:57:27.355Z,72.18
2023-05-05T21:59:54.305Z,72.03
2023-05-05T22:02:21.256Z,71.47
2023-05-05T22:04:54.512Z,71.07
2023-05-05T22:07:21.472Z,71.29
2023-05-05T22:09:48.714Z,71.88
2023-05-05T22:12:16.467Z,71.86
2023-05-05T22:14:43.430Z,72.67
2023-05-05T22:17:11.143Z,73.02
2023-05-05T22:19:38.055Z,72.77
2023-05-05T22:22:05.582Z,72.89
2023-05-05T22:24:32.665Z,72.98
2023-05-05T22:26:59.697Z,73.60
2023-05-05T22:29:26.790Z,73.89
2023-05-05T22:31:53.819Z,73.35
2023-05-05T22:34:22.124Z,73.01
2023-05-05T22:36:49.905Z,71.66
2023-05-05T22:39:18.627Z,72.57
2023-05-05T22:41:45.846Z,72.56
2023-05-05T22:44:12.923Z,72.36
2023-05-05T22:46:40.286Z,73.15
2023-05-05T22:49:10.418Z,73.45
2023-05-05T22:51:38.020Z,73.51
2023-05-05T22:54:05.108Z,73.92
2023-05-05T22:56:32.421Z,74.98
2023-05-05T22:58:59.422Z,74.04
2023-05-05T23:01:26.359Z,72.26
2023-05-05T23:03:53.465Z,70.54
2023-05-05T23:06:20.484Z,70.58
2023-05-05T23:08:49.282Z,70.58
2023-05-05T23:11:16.620Z,69.77
2023-05-05T23:13:43.581Z,69.74
2023-05-05T23:16:10.759Z,70.62
2023-05-05T23:18:37.992Z,70.23
2023-05-05T23:21:05.766Z,68.61
2023-05-05T23:23:32.621Z,69.31
2023-05-05T23:25:59.574Z,68.66
2023-05-05T23:28:26.537Z,69.78
2023-05-05T23:30:53.464Z,69.97
2023-05-05T23:33:20.562Z,69.93
2023-05-05T23:35:47.768Z,71.61
2023-05-05T23:38:14.741Z,71.56
2023-05-05T23:40:42.170Z,72.01
2023-05-05T23:43:12.153Z,72.15
2023-05-05T23:45:39.258Z,71.90
2023-05-05T23:48:06.408Z,70.51
2023-05-05T23:50:33.475Z,70.49
2023-05-05T23:53:03.062Z,71.29
2023-05-05T23:55:30.120Z,69.40
2023-05-05T23:57:57.183Z,67.61
